sensor_id;sensor_type;location;lat;lon;timestamp;P1;durP1;ratioP1;P2;durP2;ratioP2
74793;SDS011;63320;50.768;6.724;2023-03-26T00:01:10;16.02;;;2.80;;
74793;SDS011;63320;50.768;6.724;2023-03-26T00:03:39;20.10;;;2.63;;
74793;SDS011;63320;50.768;6.724;2023-03-26T00:06:05;16.13;;;2.25;;
74793;SDS011;63320;50.768;6.724;2023-03-26T00:08:32;17.38;;;2.53;;
74793;SDS011;63320;50.768;6.724;2023-03-26T00:10:58;19.02;;;2.50;;
74793;SDS011;63320;50.768;6.724;2023-03-26T00:13:23;14.07;;;2.15;;
74793;SDS011;63320;50.768;6.724;2023-03-26T00:15:48;13.48;;;2.25;;
74793;SDS011;63320;50.768;6.724;2023-03-26T00:18:14;16.92;;;2.60;;
74793;SDS011;63320;50.768;6.724;2023-03-26T00:20:40;18.08;;;2.85;;
74793;SDS011;63320;50.768;6.724;2023-03-26T00:23:06;15.98;;;2.80;;
74793;SDS011;63320;50.768;6.724;2023-03-26T00:25:31;18.90;;;2.88;;
74793;SDS011;63320;50.768;6.724;2023-03-26T00:27:57;17.02;;;3.15;;
74793;SDS011;63320;50.768;6.724;2023-03-26T00:30:22;16.45;;;2.72;;
74793;SDS011;63320;50.768;6.724;2023-03-26T00:32:48;16.02;;;2.88;;
74793;SDS011;63320;50.768;6.724;2023-03-26T00:35:13;15.85;;;2.50;;
74793;SDS011;63320;50.768;6.724;2023-03-26T00:37:40;13.85;;;2.30;;
74793;SDS011;63320;50.768;6.724;2023-03-26T00:40:06;15.80;;;2.78;;
74793;SDS011;63320;50.768;6.724;2023-03-26T00:42:33;16.45;;;2.65;;
74793;SDS011;63320;50.768;6.724;2023-03-26T00:44:58;15.27;;;2.28;;
74793;SDS011;63320;50.768;6.724;2023-03-26T00:47:24;14.57;;;2.28;;
74793;SDS011;63320;50.768;6.724;2023-03-26T00:49:49;12.60;;;2.08;;
74793;SDS011;63320;50.768;6.724;2023-03-26T00:52:15;13.38;;;1.98;;
74793;SDS011;63320;50.768;6.724;2023-03-26T00:54:42;14.43;;;2.53;;
74793;SDS011;63320;50.768;6.724;2023-03-26T00:57:07;20.10;;;3.47;;
74793;SDS011;63320;50.768;6.724;2023-03-26T00:59:33;20.38;;;2.75;;
74793;SDS011;63320;50.768;6.724;2023-03-26T01:01:58;16.63;;;2.15;;
74793;SDS011;63320;50.768;6.724;2023-03-26T01:04:25;14.68;;;2.95;;
74793;SDS011;63320;50.768;6.724;2023-03-26T01:06:52;16.60;;;2.30;;
74793;SDS011;63320;50.768;6.724;2023-03-26T01:09:20;14.38;;;2.70;;
74793;SDS011;63320;50.768;6.724;2023-03-26T01:11:51;14.02;;;1.92;;
74793;SDS011;63320;50.768;6.724;2023-03-26T01:14:17;19.13;;;2.70;;
74793;SDS011;63320;50.768;6.724;2023-03-26T01:16:45;16.02;;;2.28;;
74793;SDS011;63320;50.768;6.724;2023-03-26T01:19:14;18.92;;;2.20;;
74793;SDS011;63320;50.768;6.724;2023-03-26T01:21:47;16.88;;;2.15;;
74793;SDS011;63320;50.768;6.724;2023-03-26T01:24:14;17.30;;;2.58;;
74793;SDS011;63320;50.768;6.724;2023-03-26T01:29:29;16.67;;;1.90;;
74793;SDS011;63320;50.768;6.724;2023-03-26T01:32:02;15.23;;;2.30;;
74793;SDS011;63320;50.768;6.724;2023-03-26T01:34:42;12.10;;;1.73;;
74793;SDS011;63320;50.768;6.724;2023-03-26T01:37:16;10.77;;;2.00;;
74793;SDS011;63320;50.768;6.724;2023-03-26T01:42:14;9.15;;;1.60;;
74793;SDS011;63320;50.768;6.724;2023-03-26T01:44:49;13.55;;;2.53;;
74793;SDS011;63320;50.768;6.724;2023-03-26T01:47:19;18.10;;;1.92;;
74793;SDS011;63320;50.768;6.724;2023-03-26T01:49:45;13.45;;;2.17;;
74793;SDS011;63320;50.768;6.724;2023-03-26T01:52:11;16.23;;;2.08;;
74793;SDS011;63320;50.768;6.724;2023-03-26T01:54:39;14.32;;;2.05;;
74793;SDS011;63320;50.768;6.724;2023-03-26T01:57:08;13.32;;;1.70;;
74793;SDS011;63320;50.768;6.724;2023-03-26T01:59:47;14.63;;;2.40;;
74793;SDS011;63320;50.768;6.724;2023-03-26T02:02:25;10.43;;;1.85;;
74793;SDS011;63320;50.768;6.724;2023-03-26T02:04:56;15.63;;;2.00;;
74793;SDS011;63320;50.768;6.724;2023-03-26T02:07:30;11.57;;;1.73;;
74793;SDS011;63320;50.768;6.724;2023-03-26T02:10:02;11.93;;;1.83;;
74793;SDS011;63320;50.768;6.724;2023-03-26T02:12:32;9.07;;;1.95;;
74793;SDS011;63320;50.768;6.724;2023-03-26T02:14:59;14.07;;;2.00;;
74793;SDS011;63320;50.768;6.724;2023-03-26T02:17:25;13.07;;;1.88;;
74793;SDS011;63320;50.768;6.724;2023-03-26T02:19:51;12.75;;;1.75;;
74793;SDS011;63320;50.768;6.724;2023-03-26T02:22:16;15.15;;;1.85;;
74793;SDS011;63320;50.768;6.724;2023-03-26T02:24:42;12.43;;;1.92;;
74793;SDS011;63320;50.768;6.724;2023-03-26T02:27:08;14.20;;;1.75;;
74793;SDS011;63320;50.768;6.724;2023-03-26T02:29:35;15.30;;;1.77;;
74793;SDS011;63320;50.768;6.724;2023-03-26T02:32:01;13.88;;;1.90;;
74793;SDS011;63320;50.768;6.724;2023-03-26T02:34:26;13.90;;;1.83;;
74793;SDS011;63320;50.768;6.724;2023-03-26T02:36:51;11.02;;;2.10;;
74793;SDS011;63320;50.768;6.724;2023-03-26T02:39:16;13.80;;;1.80;;
74793;SDS011;63320;50.768;6.724;2023-03-26T02:41:42;12.25;;;1.77;;
74793;SDS011;63320;50.768;6.724;2023-03-26T02:44:07;16.52;;;2.15;;
74793;SDS011;63320;50.768;6.724;2023-03-26T02:46:34;14.43;;;2.08;;
74793;SDS011;63320;50.768;6.724;2023-03-26T02:48:59;11.90;;;1.73;;
74793;SDS011;63320;50.768;6.724;2023-03-26T02:51:24;14.70;;;1.95;;
74793;SDS011;63320;50.768;6.724;2023-03-26T02:53:50;13.88;;;1.90;;
74793;SDS011;63320;50.768;6.724;2023-03-26T02:56:15;11.63;;;1.75;;
74793;SDS011;63320;50.768;6.724;2023-03-26T02:58:40;11.38;;;1.90;;
74793;SDS011;63320;50.768;6.724;2023-03-26T03:01:06;15.07;;;1.98;;
74793;SDS011;63320;50.768;6.724;2023-03-26T03:03:32;15.25;;;1.98;;
74793;SDS011;63320;50.768;6.724;2023-03-26T03:05:58;15.13;;;1.95;;
74793;SDS011;63320;50.768;6.724;2023-03-26T03:08:23;11.52;;;2.35;;
74793;SDS011;63320;50.768;6.724;2023-03-26T03:10:57;14.20;;;2.47;;
74793;SDS011;63320;50.768;6.724;2023-03-26T03:13:23;12.82;;;2.20;;
74793;SDS011;63320;50.768;6.724;2023-03-26T03:15:48;12.55;;;1.85;;
74793;SDS011;63320;50.768;6.724;2023-03-26T03:18:14;15.80;;;3.03;;
74793;SDS011;63320;50.768;6.724;2023-03-26T03:20:40;12.10;;;2.00;;
74793;SDS011;63320;50.768;6.724;2023-03-26T03:23:06;13.85;;;2.45;;
74793;SDS011;63320;50.768;6.724;2023-03-26T03:25:31;12.27;;;2.10;;
74793;SDS011;63320;50.768;6.724;2023-03-26T03:27:56;17.17;;;2.47;;
74793;SDS011;63320;50.768;6.724;2023-03-26T03:30:22;16.00;;;2.90;;
74793;SDS011;63320;50.768;6.724;2023-03-26T03:32:47;16.52;;;2.35;;
74793;SDS011;63320;50.768;6.724;2023-03-26T03:35:12;13.18;;;2.15;;
74793;SDS011;63320;50.768;6.724;2023-03-26T03:37:39;10.38;;;1.90;;
74793;SDS011;63320;50.768;6.724;2023-03-26T03:40:05;16.73;;;2.30;;
74793;SDS011;63320;50.768;6.724;2023-03-26T03:42:31;14.23;;;2.40;;
74793;SDS011;63320;50.768;6.724;2023-03-26T03:44:57;12.35;;;2.60;;
74793;SDS011;63320;50.768;6.724;2023-03-26T03:47:22;14.80;;;2.30;;
74793;SDS011;63320;50.768;6.724;2023-03-26T03:49:48;10.70;;;2.38;;
74793;SDS011;63320;50.768;6.724;2023-03-26T03:52:13;16.42;;;2.40;;
74793;SDS011;63320;50.768;6.724;2023-03-26T03:54:40;11.60;;;2.22;;
74793;SDS011;63320;50.768;6.724;2023-03-26T03:57:05;12.48;;;2.50;;
74793;SDS011;63320;50.768;6.724;2023-03-26T03:59:30;10.40;;;2.50;;
74793;SDS011;63320;50.768;6.724;2023-03-26T04:01:56;14.43;;;2.33;;
74793;SDS011;63320;50.768;6.724;2023-03-26T04:04:21;11.50;;;1.90;;
74793;SDS011;63320;50.768;6.724;2023-03-26T04:06:46;13.65;;;2.35;;
74793;SDS011;63320;50.768;6.724;2023-03-26T04:09:12;12.05;;;2.15;;
74793;SDS011;63320;50.768;6.724;2023-03-26T04:11:38;12.07;;;2.88;;
74793;SDS011;63320;50.768;6.724;2023-03-26T04:14:04;8.85;;;1.88;;
74793;SDS011;63320;50.768;6.724;2023-03-26T04:16:29;12.35;;;2.10;;
74793;SDS011;63320;50.768;6.724;2023-03-26T04:18:54;15.10;;;2.40;;
74793;SDS011;63320;50.768;6.724;2023-03-26T04:21:20;12.02;;;2.63;;
74793;SDS011;63320;50.768;6.724;2023-03-26T04:23:45;12.82;;;2.05;;
74793;SDS011;63320;50.768;6.724;2023-03-26T04:26:11;13.38;;;1.98;;
74793;SDS011;63320;50.768;6.724;2023-03-26T04:28:43;13.48;;;2.35;;
74793;SDS011;63320;50.768;6.724;2023-03-26T04:31:09;14.63;;;2.97;;
74793;SDS011;63320;50.768;6.724;2023-03-26T04:33:38;8.68;;;2.17;;
74793;SDS011;63320;50.768;6.724;2023-03-26T04:36:04;10.25;;;2.28;;
74793;SDS011;63320;50.768;6.724;2023-03-26T04:38:39;10.93;;;2.45;;
74793;SDS011;63320;50.768;6.724;2023-03-26T04:41:05;13.00;;;1.85;;
74793;SDS011;63320;50.768;6.724;2023-03-26T04:43:30;12.85;;;2.08;;
74793;SDS011;63320;50.768;6.724;2023-03-26T04:45:57;12.82;;;2.10;;
74793;SDS011;63320;50.768;6.724;2023-03-26T04:48:22;16.40;;;2.45;;
74793;SDS011;63320;50.768;6.724;2023-03-26T04:50:48;12.05;;;2.15;;
74793;SDS011;63320;50.768;6.724;2023-03-26T04:53:14;10.57;;;2.20;;
74793;SDS011;63320;50.768;6.724;2023-03-26T04:55:42;10.68;;;2.03;;
74793;SDS011;63320;50.768;6.724;2023-03-26T04:58:10;16.27;;;2.38;;
74793;SDS011;63320;50.768;6.724;2023-03-26T05:00:37;17.58;;;2.45;;
74793;SDS011;63320;50.768;6.724;2023-03-26T05:03:03;10.95;;;2.80;;
74793;SDS011;63320;50.768;6.724;2023-03-26T05:05:29;12.45;;;2.58;;
74793;SDS011;63320;50.768;6.724;2023-03-26T05:07:54;10.68;;;2.55;;
74793;SDS011;63320;50.768;6.724;2023-03-26T05:10:20;11.27;;;2.70;;
74793;SDS011;63320;50.768;6.724;2023-03-26T05:12:46;10.32;;;2.20;;
74793;SDS011;63320;50.768;6.724;2023-03-26T05:15:12;12.00;;;2.22;;
74793;SDS011;63320;50.768;6.724;2023-03-26T05:17:38;14.95;;;2.83;;
74793;SDS011;63320;50.768;6.724;2023-03-26T05:20:06;14.77;;;2.22;;
74793;SDS011;63320;50.768;6.724;2023-03-26T05:22:38;10.93;;;2.08;;
74793;SDS011;63320;50.768;6.724;2023-03-26T05:25:04;10.93;;;2.45;;
74793;SDS011;63320;50.768;6.724;2023-03-26T05:27:31;9.55;;;2.25;;
74793;SDS011;63320;50.768;6.724;2023-03-26T05:29:59;10.68;;;2.28;;
74793;SDS011;63320;50.768;6.724;2023-03-26T05:32:24;14.35;;;2.55;;
74793;SDS011;63320;50.768;6.724;2023-03-26T05:34:50;14.85;;;3.13;;
74793;SDS011;63320;50.768;6.724;2023-03-26T05:37:16;14.88;;;2.33;;
74793;SDS011;63320;50.768;6.724;2023-03-26T05:39:42;11.85;;;2.60;;
74793;SDS011;63320;50.768;6.724;2023-03-26T05:42:07;11.27;;;2.30;;
74793;SDS011;63320;50.768;6.724;2023-03-26T05:44:33;15.80;;;2.45;;
74793;SDS011;63320;50.768;6.724;2023-03-26T05:46:58;10.00;;;2.20;;
74793;SDS011;63320;50.768;6.724;2023-03-26T05:49:24;11.82;;;2.05;;
74793;SDS011;63320;50.768;6.724;2023-03-26T05:51:49;11.50;;;2.50;;
74793;SDS011;63320;50.768;6.724;2023-03-26T05:54:16;12.73;;;2.25;;
74793;SDS011;63320;50.768;6.724;2023-03-26T05:56:41;15.25;;;2.70;;
74793;SDS011;63320;50.768;6.724;2023-03-26T05:59:06;17.35;;;3.72;;
74793;SDS011;63320;50.768;6.724;2023-03-26T06:01:32;17.75;;;3.28;;
74793;SDS011;63320;50.768;6.724;2023-03-26T06:03:57;12.65;;;2.88;;
74793;SDS011;63320;50.768;6.724;2023-03-26T06:06:22;13.32;;;2.90;;
74793;SDS011;63320;50.768;6.724;2023-03-26T06:08:49;16.60;;;2.95;;
74793;SDS011;63320;50.768;6.724;2023-03-26T06:11:17;11.88;;;2.78;;
74793;SDS011;63320;50.768;6.724;2023-03-26T06:13:44;13.10;;;2.95;;
74793;SDS011;63320;50.768;6.724;2023-03-26T06:16:11;15.27;;;3.47;;
74793;SDS011;63320;50.768;6.724;2023-03-26T06:18:37;15.05;;;2.92;;
74793;SDS011;63320;50.768;6.724;2023-03-26T06:21:03;15.98;;;2.65;;
74793;SDS011;63320;50.768;6.724;2023-03-26T06:23:30;11.25;;;2.20;;
74793;SDS011;63320;50.768;6.724;2023-03-26T06:25:56;13.90;;;2.50;;
74793;SDS011;63320;50.768;6.724;2023-03-26T06:28:23;11.32;;;2.38;;
74793;SDS011;63320;50.768;6.724;2023-03-26T06:30:48;11.98;;;2.90;;
74793;SDS011;63320;50.768;6.724;2023-03-26T06:33:14;14.43;;;1.92;;
74793;SDS011;63320;50.768;6.724;2023-03-26T06:35:40;14.63;;;2.60;;
74793;SDS011;63320;50.768;6.724;2023-03-26T06:38:05;14.43;;;2.38;;
74793;SDS011;63320;50.768;6.724;2023-03-26T06:40:31;12.82;;;2.45;;
74793;SDS011;63320;50.768;6.724;2023-03-26T06:42:57;13.95;;;2.55;;
74793;SDS011;63320;50.768;6.724;2023-03-26T06:45:24;11.95;;;2.10;;
74793;SDS011;63320;50.768;6.724;2023-03-26T06:47:49;13.02;;;2.38;;
74793;SDS011;63320;50.768;6.724;2023-03-26T06:50:14;10.95;;;2.25;;
74793;SDS011;63320;50.768;6.724;2023-03-26T06:52:41;11.13;;;1.85;;
74793;SDS011;63320;50.768;6.724;2023-03-26T06:55:06;10.48;;;2.08;;
74793;SDS011;63320;50.768;6.724;2023-03-26T06:57:32;11.60;;;2.40;;
74793;SDS011;63320;50.768;6.724;2023-03-26T06:59:58;11.63;;;2.40;;
74793;SDS011;63320;50.768;6.724;2023-03-26T07:02:24;13.75;;;2.95;;
74793;SDS011;63320;50.768;6.724;2023-03-26T07:04:50;11.23;;;2.05;;
74793;SDS011;63320;50.768;6.724;2023-03-26T07:07:15;11.30;;;2.05;;
74793;SDS011;63320;50.768;6.724;2023-03-26T07:09:40;10.95;;;2.20;;
74793;SDS011;63320;50.768;6.724;2023-03-26T07:12:06;11.05;;;2.30;;
74793;SDS011;63320;50.768;6.724;2023-03-26T07:14:31;15.38;;;3.08;;
74793;SDS011;63320;50.768;6.724;2023-03-26T07:16:57;13.15;;;2.45;;
74793;SDS011;63320;50.768;6.724;2023-03-26T07:19:24;16.55;;;2.55;;
74793;SDS011;63320;50.768;6.724;2023-03-26T07:21:49;13.85;;;2.10;;
74793;SDS011;63320;50.768;6.724;2023-03-26T07:24:15;14.45;;;2.90;;
74793;SDS011;63320;50.768;6.724;2023-03-26T07:26:44;11.65;;;2.95;;
74793;SDS011;63320;50.768;6.724;2023-03-26T07:29:16;14.30;;;2.63;;
74793;SDS011;63320;50.768;6.724;2023-03-26T07:31:45;9.23;;;2.05;;
74793;SDS011;63320;50.768;6.724;2023-03-26T07:34:23;8.73;;;2.28;;
74793;SDS011;63320;50.768;6.724;2023-03-26T07:36:59;11.98;;;2.38;;
74793;SDS011;63320;50.768;6.724;2023-03-26T07:39:33;9.18;;;2.20;;
74793;SDS011;63320;50.768;6.724;2023-03-26T07:42:08;8.52;;;2.17;;
74793;SDS011;63320;50.768;6.724;2023-03-26T07:44:48;12.45;;;2.45;;
74793;SDS011;63320;50.768;6.724;2023-03-26T07:47:22;10.73;;;2.38;;
74793;SDS011;63320;50.768;6.724;2023-03-26T07:49:54;9.68;;;2.28;;
74793;SDS011;63320;50.768;6.724;2023-03-26T07:52:20;12.43;;;2.65;;
74793;SDS011;63320;50.768;6.724;2023-03-26T07:54:46;10.10;;;2.45;;
74793;SDS011;63320;50.768;6.724;2023-03-26T07:57:12;9.32;;;2.45;;
74793;SDS011;63320;50.768;6.724;2023-03-26T07:59:44;10.45;;;2.35;;
74793;SDS011;63320;50.768;6.724;2023-03-26T08:02:34;8.95;;;2.63;;
74793;SDS011;63320;50.768;6.724;2023-03-26T08:05:13;10.05;;;2.30;;
74793;SDS011;63320;50.768;6.724;2023-03-26T08:07:48;12.38;;;2.30;;
74793;SDS011;63320;50.768;6.724;2023-03-26T08:10:25;12.30;;;2.50;;
74793;SDS011;63320;50.768;6.724;2023-03-26T08:12:57;10.73;;;2.35;;
74793;SDS011;63320;50.768;6.724;2023-03-26T08:15:27;10.95;;;2.50;;
74793;SDS011;63320;50.768;6.724;2023-03-26T08:17:57;9.32;;;2.10;;
74793;SDS011;63320;50.768;6.724;2023-03-26T08:20:33;8.98;;;2.10;;
74793;SDS011;63320;50.768;6.724;2023-03-26T08:23:04;11.80;;;2.20;;
74793;SDS011;63320;50.768;6.724;2023-03-26T08:25:32;9.30;;;2.22;;
74793;SDS011;63320;50.768;6.724;2023-03-26T08:28:05;10.80;;;2.63;;
74793;SDS011;63320;50.768;6.724;2023-03-26T08:33:11;16.30;;;3.43;;
74793;SDS011;63320;50.768;6.724;2023-03-26T08:35:40;10.98;;;2.67;;
74793;SDS011;63320;50.768;6.724;2023-03-26T08:38:06;15.32;;;2.85;;
74793;SDS011;63320;50.768;6.724;2023-03-26T08:40:37;12.95;;;3.25;;
74793;SDS011;63320;50.768;6.724;2023-03-26T08:43:24;10.23;;;4.38;;
74793;SDS011;63320;50.768;6.724;2023-03-26T08:46:15;9.90;;;3.90;;
74793;SDS011;63320;50.768;6.724;2023-03-26T08:49:10;11.38;;;4.00;;
74793;SDS011;63320;50.768;6.724;2023-03-26T08:55:03;12.80;;;3.17;;
74793;SDS011;63320;50.768;6.724;2023-03-26T08:58:06;9.57;;;3.50;;
74793;SDS011;63320;50.768;6.724;2023-03-26T09:06:59;10.50;;;3.28;;
74793;SDS011;63320;50.768;6.724;2023-03-26T09:10:07;11.73;;;3.05;;
74793;SDS011;63320;50.768;6.724;2023-03-26T09:18:54;8.82;;;3.72;;
74793;SDS011;63320;50.768;6.724;2023-03-26T09:21:49;8.32;;;3.30;;
74793;SDS011;63320;50.768;6.724;2023-03-26T09:28:07;7.78;;;2.03;;
74793;SDS011;63320;50.768;6.724;2023-03-26T09:31:13;7.82;;;1.88;;
74793;SDS011;63320;50.768;6.724;2023-03-26T09:33:55;8.02;;;2.20;;
74793;SDS011;63320;50.768;6.724;2023-03-26T09:36:43;7.65;;;1.67;;
74793;SDS011;63320;50.768;6.724;2023-03-26T09:39:21;6.68;;;1.63;;
74793;SDS011;63320;50.768;6.724;2023-03-26T09:42:02;6.10;;;1.45;;
74793;SDS011;63320;50.768;6.724;2023-03-26T09:50:52;8.82;;;1.42;;
74793;SDS011;63320;50.768;6.724;2023-03-26T09:53:32;6.20;;;1.23;;
74793;SDS011;63320;50.768;6.724;2023-03-26T09:56:17;4.03;;;1.35;;
74793;SDS011;63320;50.768;6.724;2023-03-26T09:58:57;6.78;;;1.50;;
74793;SDS011;63320;50.768;6.724;2023-03-26T10:01:45;8.07;;;1.50;;
74793;SDS011;63320;50.768;6.724;2023-03-26T10:07:14;7.47;;;1.30;;
74793;SDS011;63320;50.768;6.724;2023-03-26T10:10:06;9.55;;;2.13;;
74793;SDS011;63320;50.768;6.724;2023-03-26T10:12:42;6.85;;;2.10;;
74793;SDS011;63320;50.768;6.724;2023-03-26T10:15:15;7.60;;;2.05;;
74793;SDS011;63320;50.768;6.724;2023-03-26T10:17:55;8.48;;;2.20;;
74793;SDS011;63320;50.768;6.724;2023-03-26T10:20:30;9.48;;;2.42;;
74793;SDS011;63320;50.768;6.724;2023-03-26T10:23:12;9.73;;;2.10;;
74793;SDS011;63320;50.768;6.724;2023-03-26T10:25:53;8.60;;;3.05;;
74793;SDS011;63320;50.768;6.724;2023-03-26T10:28:36;10.02;;;2.75;;
74793;SDS011;63320;50.768;6.724;2023-03-26T10:31:20;9.23;;;2.00;;
74793;SDS011;63320;50.768;6.724;2023-03-26T10:33:56;9.45;;;1.90;;
74793;SDS011;63320;50.768;6.724;2023-03-26T10:36:29;7.55;;;1.65;;
74793;SDS011;63320;50.768;6.724;2023-03-26T10:39:02;7.07;;;1.55;;
74793;SDS011;63320;50.768;6.724;2023-03-26T10:41:39;8.98;;;2.08;;
74793;SDS011;63320;50.768;6.724;2023-03-26T10:44:15;6.78;;;1.55;;
74793;SDS011;63320;50.768;6.724;2023-03-26T10:47:00;7.13;;;1.67;;
74793;SDS011;63320;50.768;6.724;2023-03-26T10:52:40;7.55;;;1.83;;
74793;SDS011;63320;50.768;6.724;2023-03-26T10:55:13;8.20;;;2.03;;
74793;SDS011;63320;50.768;6.724;2023-03-26T10:57:43;7.40;;;1.92;;
74793;SDS011;63320;50.768;6.724;2023-03-26T11:00:14;5.63;;;1.90;;
74793;SDS011;63320;50.768;6.724;2023-03-26T11:02:45;5.70;;;1.60;;
74793;SDS011;63320;50.768;6.724;2023-03-26T11:05:25;5.15;;;1.55;;
74793;SDS011;63320;50.768;6.724;2023-03-26T11:08:03;6.63;;;1.65;;
74793;SDS011;63320;50.768;6.724;2023-03-26T11:13:06;3.67;;;1.20;;
74793;SDS011;63320;50.768;6.724;2023-03-26T11:15:40;6.50;;;1.40;;
74793;SDS011;63320;50.768;6.724;2023-03-26T11:18:13;4.43;;;1.38;;
74793;SDS011;63320;50.768;6.724;2023-03-26T11:20:44;4.65;;;1.33;;
74793;SDS011;63320;50.768;6.724;2023-03-26T11:23:23;6.38;;;1.40;;
74793;SDS011;63320;50.768;6.724;2023-03-26T11:28:33;5.72;;;1.40;;
74793;SDS011;63320;50.768;6.724;2023-03-26T11:31:11;4.75;;;1.50;;
74793;SDS011;63320;50.768;6.724;2023-03-26T11:36:16;1.73;;;0.50;;
74793;SDS011;63320;50.768;6.724;2023-03-26T11:38:45;0.00;;;0.00;;
74793;SDS011;63320;50.768;6.724;2023-03-26T11:41:14;1.17;;;0.10;;
74793;SDS011;63320;50.768;6.724;2023-03-26T11:43:42;0.20;;;0.15;;
74793;SDS011;63320;50.768;6.724;2023-03-26T11:46:11;0.73;;;0.17;;
74793;SDS011;63320;50.768;6.724;2023-03-26T11:48:39;0.28;;;0.20;;
74793;SDS011;63320;50.768;6.724;2023-03-26T11:51:08;0.50;;;0.10;;
74793;SDS011;63320;50.768;6.724;2023-03-26T11:53:36;0.00;;;0.00;;
74793;SDS011;63320;50.768;6.724;2023-03-26T11:56:04;0.08;;;0.00;;
74793;SDS011;63320;50.768;6.724;2023-03-26T11:58:35;0.00;;;0.00;;
74793;SDS011;63320;50.768;6.724;2023-03-26T12:01:11;0.00;;;0.00;;
74793;SDS011;63320;50.768;6.724;2023-03-26T12:03:38;0.00;;;0.00;;
74793;SDS011;63320;50.768;6.724;2023-03-26T12:06:04;0.00;;;0.00;;
74793;SDS011;63320;50.768;6.724;2023-03-26T12:08:33;0.00;;;0.00;;
74793;SDS011;63320;50.768;6.724;2023-03-26T12:11:03;0.20;;;0.10;;
74793;SDS011;63320;50.768;6.724;2023-03-26T12:13:33;0.43;;;0.00;;
74793;SDS011;63320;50.768;6.724;2023-03-26T12:16:07;0.00;;;0.00;;
74793;SDS011;63320;50.768;6.724;2023-03-26T12:18:35;0.35;;;0.10;;
74793;SDS011;63320;50.768;6.724;2023-03-26T12:21:02;0.20;;;0.10;;
74793;SDS011;63320;50.768;6.724;2023-03-26T12:23:35;0.35;;;0.10;;
74793;SDS011;63320;50.768;6.724;2023-03-26T12:26:03;1.52;;;0.40;;
74793;SDS011;63320;50.768;6.724;2023-03-26T12:28:35;0.22;;;0.10;;
74793;SDS011;63320;50.768;6.724;2023-03-26T12:31:01;0.75;;;0.30;;
74793;SDS011;63320;50.768;6.724;2023-03-26T12:33:28;0.55;;;0.30;;
74793;SDS011;63320;50.768;6.724;2023-03-26T12:35:55;1.00;;;0.55;;
74793;SDS011;63320;50.768;6.724;2023-03-26T12:38:22;0.77;;;0.30;;
74793;SDS011;63320;50.768;6.724;2023-03-26T12:41:03;0.47;;;0.30;;
74793;SDS011;63320;50.768;6.724;2023-03-26T12:43:35;0.80;;;0.30;;
74793;SDS011;63320;50.768;6.724;2023-03-26T12:46:02;0.95;;;0.40;;
74793;SDS011;63320;50.768;6.724;2023-03-26T12:48:43;0.70;;;0.40;;
74793;SDS011;63320;50.768;6.724;2023-03-26T12:51:10;0.30;;;0.30;;
74793;SDS011;63320;50.768;6.724;2023-03-26T12:53:52;1.75;;;0.57;;
74793;SDS011;63320;50.768;6.724;2023-03-26T12:56:34;1.75;;;0.40;;
74793;SDS011;63320;50.768;6.724;2023-03-26T12:59:16;1.98;;;0.50;;
74793;SDS011;63320;50.768;6.724;2023-03-26T13:01:53;1.02;;;0.50;;
74793;SDS011;63320;50.768;6.724;2023-03-26T13:04:42;1.63;;;0.68;;
74793;SDS011;63320;50.768;6.724;2023-03-26T13:07:19;0.93;;;0.30;;
74793;SDS011;63320;50.768;6.724;2023-03-26T13:09:56;0.88;;;0.50;;
74793;SDS011;63320;50.768;6.724;2023-03-26T13:12:42;0.85;;;0.50;;
74793;SDS011;63320;50.768;6.724;2023-03-26T13:15:19;2.47;;;0.98;;
74793;SDS011;63320;50.768;6.724;2023-03-26T13:17:51;1.95;;;0.85;;
74793;SDS011;63320;50.768;6.724;2023-03-26T13:20:29;2.53;;;1.00;;
74793;SDS011;63320;50.768;6.724;2023-03-26T13:23:06;1.52;;;0.80;;
74793;SDS011;63320;50.768;6.724;2023-03-26T13:25:37;1.80;;;1.00;;
74793;SDS011;63320;50.768;6.724;2023-03-26T13:28:16;2.60;;;1.10;;
74793;SDS011;63320;50.768;6.724;2023-03-26T13:30:51;2.67;;;1.20;;
74793;SDS011;63320;50.768;6.724;2023-03-26T13:33:31;3.85;;;1.60;;
74793;SDS011;63320;50.768;6.724;2023-03-26T13:36:04;3.65;;;1.55;;
74793;SDS011;63320;50.768;6.724;2023-03-26T13:38:40;3.42;;;1.63;;
74793;SDS011;63320;50.768;6.724;2023-03-26T13:41:16;3.25;;;1.60;;
74793;SDS011;63320;50.768;6.724;2023-03-26T13:43:56;2.58;;;1.55;;
74793;SDS011;63320;50.768;6.724;2023-03-26T13:46:29;2.28;;;1.10;;
74793;SDS011;63320;50.768;6.724;2023-03-26T13:48:59;2.50;;;0.95;;
74793;SDS011;63320;50.768;6.724;2023-03-26T13:51:28;2.10;;;1.10;;
74793;SDS011;63320;50.768;6.724;2023-03-26T13:53:59;1.95;;;0.80;;
74793;SDS011;63320;50.768;6.724;2023-03-26T13:56:34;3.08;;;1.10;;
74793;SDS011;63320;50.768;6.724;2023-03-26T13:59:06;2.30;;;1.00;;
74793;SDS011;63320;50.768;6.724;2023-03-26T14:01:39;2.28;;;1.08;;
74793;SDS011;63320;50.768;6.724;2023-03-26T14:04:12;3.03;;;1.10;;
74793;SDS011;63320;50.768;6.724;2023-03-26T14:06:43;2.97;;;1.20;;
74793;SDS011;63320;50.768;6.724;2023-03-26T14:09:15;2.92;;;1.17;;
74793;SDS011;63320;50.768;6.724;2023-03-26T14:11:48;3.08;;;1.52;;
74793;SDS011;63320;50.768;6.724;2023-03-26T14:14:24;2.67;;;1.10;;
74793;SDS011;63320;50.768;6.724;2023-03-26T14:16:55;3.35;;;1.20;;
74793;SDS011;63320;50.768;6.724;2023-03-26T14:19:32;2.28;;;1.10;;
74793;SDS011;63320;50.768;6.724;2023-03-26T14:22:22;2.45;;;1.15;;
74793;SDS011;63320;50.768;6.724;2023-03-26T14:25:00;3.58;;;1.33;;
74793;SDS011;63320;50.768;6.724;2023-03-26T14:27:43;2.58;;;1.10;;
74793;SDS011;63320;50.768;6.724;2023-03-26T14:33:36;2.67;;;0.90;;
74793;SDS011;63320;50.768;6.724;2023-03-26T14:36:32;2.45;;;1.10;;
74793;SDS011;63320;50.768;6.724;2023-03-26T14:39:26;2.38;;;1.08;;
74793;SDS011;63320;50.768;6.724;2023-03-26T14:42:06;2.95;;;1.00;;
74793;SDS011;63320;50.768;6.724;2023-03-26T14:44:44;2.35;;;1.20;;
74793;SDS011;63320;50.768;6.724;2023-03-26T14:50:11;3.58;;;1.80;;
74793;SDS011;63320;50.768;6.724;2023-03-26T14:52:54;3.47;;;1.65;;
74793;SDS011;63320;50.768;6.724;2023-03-26T14:55:29;4.22;;;2.05;;
74793;SDS011;63320;50.768;6.724;2023-03-26T14:58:22;7.45;;;3.25;;
74793;SDS011;63320;50.768;6.724;2023-03-26T15:07:19;10.68;;;6.03;;
74793;SDS011;63320;50.768;6.724;2023-03-26T15:10:03;11.85;;;7.93;;
74793;SDS011;63320;50.768;6.724;2023-03-26T15:12:42;9.27;;;6.50;;
74793;SDS011;63320;50.768;6.724;2023-03-26T15:18:26;11.00;;;6.53;;
74793;SDS011;63320;50.768;6.724;2023-03-26T15:21:37;8.77;;;5.55;;
74793;SDS011;63320;50.768;6.724;2023-03-26T15:27:41;8.48;;;4.85;;
74793;SDS011;63320;50.768;6.724;2023-03-26T15:30:22;8.70;;;5.15;;
74793;SDS011;63320;50.768;6.724;2023-03-26T15:33:25;8.38;;;4.35;;
74793;SDS011;63320;50.768;6.724;2023-03-26T15:39:39;5.28;;;2.90;;
74793;SDS011;63320;50.768;6.724;2023-03-26T15:42:15;5.95;;;2.88;;
74793;SDS011;63320;50.768;6.724;2023-03-26T15:44:49;6.50;;;3.45;;
74793;SDS011;63320;50.768;6.724;2023-03-26T15:47:24;7.20;;;4.15;;
74793;SDS011;63320;50.768;6.724;2023-03-26T15:49:59;10.60;;;4.65;;
74793;SDS011;63320;50.768;6.724;2023-03-26T15:52:41;17.13;;;7.90;;
74793;SDS011;63320;50.768;6.724;2023-03-26T15:55:21;8.57;;;4.57;;
74793;SDS011;63320;50.768;6.724;2023-03-26T15:57:54;10.45;;;4.82;;
74793;SDS011;63320;50.768;6.724;2023-03-26T16:00:25;8.20;;;5.25;;
74793;SDS011;63320;50.768;6.724;2023-03-26T16:02:55;8.35;;;4.95;;
74793;SDS011;63320;50.768;6.724;2023-03-26T16:05:42;9.25;;;3.95;;
74793;SDS011;63320;50.768;6.724;2023-03-26T16:08:19;6.93;;;3.55;;
74793;SDS011;63320;50.768;6.724;2023-03-26T16:10:53;7.28;;;2.58;;
74793;SDS011;63320;50.768;6.724;2023-03-26T16:13:25;5.15;;;1.92;;
74793;SDS011;63320;50.768;6.724;2023-03-26T16:15:59;4.50;;;1.88;;